createdAt,value
2018-03-21T00:01:45.724Z,6.60
2018-03-21T00:04:53.452Z,11.03
2018-03-21T00:07:58.565Z,8.70
2018-03-21T00:11:04.156Z,9.63
2018-03-21T00:17:21.048Z,8.33
2018-03-21T00:20:26.059Z,13.10
2018-03-21T00:23:31.033Z,8.80
2018-03-21T00:29:44.766Z,10.90
2018-03-21T00:36:00.672Z,6.13
2018-03-21T00:39:05.942Z,9.13
2018-03-21T00:42:11.493Z,10.93
2018-03-21T00:45:18.227Z,7.27
2018-03-21T00:48:25.303Z,10.70
2018-03-21T00:51:32.704Z,5.63
2018-03-21T00:54:36.811Z,8.83
2018-03-21T00:57:41.615Z,7.07
2018-03-21T01:00:45.968Z,5.97
2018-03-21T01:03:54.245Z,7.23
2018-03-21T01:07:03.284Z,5.53
2018-03-21T01:10:09.864Z,7.63
2018-03-21T01:13:16.901Z,7.10
2018-03-21T01:16:22.244Z,7.50
2018-03-21T01:19:33.593Z,5.97
2018-03-21T01:22:39.102Z,7.57
2018-03-21T01:25:46.944Z,4.00
2018-03-21T01:28:54.122Z,4.63
2018-03-21T01:32:01.801Z,5.20
2018-03-21T01:35:06.482Z,5.53
2018-03-21T01:38:13.121Z,6.93
2018-03-21T01:41:18.854Z,4.00
2018-03-21T01:44:24.117Z,5.47
2018-03-21T01:47:30.194Z,5.13
2018-03-21T01:50:35.538Z,5.03
2018-03-21T01:53:41.629Z,3.63
2018-03-21T01:56:49.570Z,6.67
2018-03-21T01:59:54.393Z,5.73
2018-03-21T02:03:00.929Z,2.90
2018-03-21T02:06:08.904Z,6.93
2018-03-21T02:09:13.108Z,5.17
2018-03-21T02:12:19.645Z,5.57
2018-03-21T02:15:30.012Z,4.87
2018-03-21T02:18:39.222Z,4.40
2018-03-21T02:21:47.621Z,7.50
2018-03-21T02:24:55.686Z,4.87
2018-03-21T02:28:03.130Z,4.53
2018-03-21T02:31:08.617Z,7.33
2018-03-21T02:34:17.583Z,4.60
2018-03-21T02:37:25.782Z,9.80
2018-03-21T02:40:29.357Z,6.03
2018-03-21T02:43:34.660Z,7.97
2018-03-21T02:46:40.168Z,6.07
2018-03-21T02:49:49.325Z,6.63
2018-03-21T02:52:57.623Z,5.27
2018-03-21T02:56:05.004Z,9.33
2018-03-21T02:59:13.658Z,7.60
2018-03-21T03:02:20.734Z,4.70
2018-03-21T03:05:29.846Z,5.37
2018-03-21T03:08:34.662Z,7.27
2018-03-21T03:11:41.733Z,4.67
2018-03-21T03:14:45.763Z,4.50
2018-03-21T03:17:50.901Z,6.77
2018-03-21T03:20:57.666Z,4.93
2018-03-21T03:24:03.906Z,7.33
2018-03-21T03:27:09.074Z,6.37
2018-03-21T03:33:35.875Z,3.73
2018-03-21T03:36:40.690Z,6.60
2018-03-21T03:39:49.175Z,7.83
2018-03-21T03:42:57.324Z,7.50
2018-03-21T03:46:04.051Z,5.03
2018-03-21T03:49:11.607Z,3.60
2018-03-21T03:55:25.348Z,6.63
2018-03-21T03:58:31.199Z,5.23
2018-03-21T04:01:36.357Z,4.70
2018-03-21T04:04:45.355Z,11.57
2018-03-21T04:07:49.170Z,7.23
2018-03-21T04:10:53.419Z,4.43
2018-03-21T04:13:59.368Z,5.87
2018-03-21T04:17:03.796Z,6.03
2018-03-21T04:20:07.227Z,6.60
2018-03-21T04:23:10.741Z,7.43
2018-03-21T04:26:14.769Z,4.53
2018-03-21T04:29:28.401Z,5.23
2018-03-21T04:32:32.623Z,7.63
2018-03-21T04:42:57.720Z,4.20
2018-03-21T04:46:02.366Z,4.63
2018-03-21T04:49:33.024Z,7.40
2018-03-21T04:52:37.469Z,8.60
2018-03-21T04:55:42.746Z,6.43
2018-03-21T05:05:36.708Z,5.17
2018-03-21T05:08:59.681Z,4.90
2018-03-21T05:18:34.277Z,5.63
2018-03-21T05:21:42.770Z,11.03
2018-03-21T05:24:50.589Z,6.20
2018-03-21T05:28:07.829Z,7.73
2018-03-21T05:38:18.814Z,4.20
2018-03-21T05:41:27.613Z,7.30
2018-03-21T05:48:11.756Z,12.63
2018-03-21T05:51:23.222Z,12.23
2018-03-21T06:01:01.756Z,8.47
2018-03-21T06:04:07.661Z,9.50
2018-03-21T06:07:11.854Z,18.50
2018-03-21T06:10:18.673Z,14.23
2018-03-21T06:13:22.985Z,9.50
2018-03-21T06:16:32.294Z,15.67
2018-03-21T06:19:36.162Z,9.97
2018-03-21T06:22:41.613Z,7.97
2018-03-21T06:25:50.589Z,18.23
2018-03-21T06:28:54.721Z,13.40
2018-03-21T06:31:58.136Z,16.97
2018-03-21T06:35:01.892Z,21.27
2018-03-21T06:38:06.446Z,13.90
2018-03-21T06:41:10.279Z,15.87
2018-03-21T06:44:15.568Z,19.60
2018-03-21T06:47:20.828Z,12.07
2018-03-21T06:50:25.161Z,13.90
2018-03-21T06:53:28.553Z,16.60
2018-03-21T06:56:31.938Z,12.97
2018-03-21T06:59:37.946Z,14.13
2018-03-21T07:02:43.628Z,10.53
2018-03-21T07:05:47.623Z,10.07
2018-03-21T07:08:52.557Z,17.63
2018-03-21T07:11:57.975Z,12.47
2018-03-21T07:15:19.625Z,19.37
2018-03-21T07:18:25.100Z,15.63
2018-03-21T07:21:29.661Z,19.23
2018-03-21T07:24:33.113Z,16.13
2018-03-21T07:27:36.596Z,17.33
2018-03-21T07:30:40.428Z,21.23
2018-03-21T07:33:43.980Z,11.93
2018-03-21T07:36:48.468Z,22.23
2018-03-21T07:39:52.527Z,21.30
2018-03-21T07:42:56.017Z,14.47
2018-03-21T07:45:59.457Z,14.80
2018-03-21T07:49:03.420Z,19.43
2018-03-21T07:52:08.144Z,16.90
2018-03-21T07:55:11.592Z,25.37
2018-03-21T07:58:15.110Z,24.53
2018-03-21T08:01:18.534Z,17.67
2018-03-21T08:04:33.743Z,15.47
2018-03-21T08:07:37.231Z,23.87
2018-03-21T08:10:40.696Z,29.27
2018-03-21T08:13:44.228Z,11.40
2018-03-21T08:16:47.724Z,17.40
2018-03-21T08:19:51.224Z,21.13
2018-03-21T08:22:54.736Z,15.90
2018-03-21T08:25:58.319Z,13.57
2018-03-21T08:29:01.811Z,15.07
2018-03-21T08:32:05.265Z,17.03
2018-03-21T08:35:10.646Z,15.43
2018-03-21T08:38:14.052Z,14.83
2018-03-21T08:41:19.920Z,20.20
2018-03-21T08:44:23.428Z,23.80
2018-03-21T08:47:26.961Z,17.97
2018-03-21T08:50:30.325Z,18.43
2018-03-21T08:53:33.652Z,22.33
2018-03-21T08:56:37.067Z,25.93
2018-03-21T08:59:41.003Z,17.83
2018-03-21T09:02:44.605Z,30.33
2018-03-21T09:05:48.304Z,26.53
2018-03-21T09:08:52.593Z,30.00
2018-03-21T09:11:55.964Z,18.57
2018-03-21T09:14:59.268Z,15.17
2018-03-21T09:18:02.604Z,21.33
2018-03-21T09:21:05.911Z,17.73
2018-03-21T09:24:09.246Z,28.70
2018-03-21T09:27:12.576Z,16.57
2018-03-21T09:30:17.664Z,26.27
2018-03-21T09:33:21.743Z,29.67
2018-03-21T09:36:25.051Z,32.43
2018-03-21T09:39:28.400Z,34.50
2018-03-21T09:42:31.784Z,33.37
2018-03-21T09:45:35.121Z,21.37
2018-03-21T09:48:38.465Z,24.43
2018-03-21T09:51:42.638Z,23.90
2018-03-21T09:54:45.961Z,24.73
2018-03-21T09:57:49.320Z,26.03
2018-03-21T10:00:52.624Z,21.33
2018-03-21T10:03:55.947Z,25.53
2018-03-21T10:06:59.258Z,23.23
2018-03-21T10:10:02.596Z,27.77
2018-03-21T10:13:06.348Z,22.37
2018-03-21T10:16:09.671Z,25.60
2018-03-21T10:19:13.007Z,28.00
2018-03-21T10:22:16.322Z,20.23
2018-03-21T10:25:19.660Z,20.30
2018-03-21T10:28:22.990Z,19.50
2018-03-21T10:31:26.303Z,23.00
2018-03-21T10:34:29.639Z,17.43
2018-03-21T10:37:33.755Z,17.33
2018-03-21T10:40:37.066Z,20.43
2018-03-21T10:43:40.391Z,24.33
2018-03-21T10:46:43.690Z,21.40
2018-03-21T10:49:47.026Z,18.77
2018-03-21T10:52:50.339Z,23.97
2018-03-21T10:55:54.427Z,18.23
2018-03-21T10:58:57.734Z,21.50
2018-03-21T11:02:06.417Z,19.90
2018-03-21T11:05:09.647Z,18.53
2018-03-21T11:08:13.021Z,22.43
2018-03-21T11:11:16.279Z,17.10
2018-03-21T11:14:19.611Z,21.33
2018-03-21T11:17:22.915Z,22.93
2018-03-21T11:20:26.257Z,22.73
2018-03-21T11:23:29.555Z,21.00
2018-03-21T11:26:32.872Z,20.93
2018-03-21T11:29:36.202Z,16.53
2018-03-21T11:32:39.499Z,14.93
2018-03-21T11:35:42.814Z,17.87
2018-03-21T11:38:46.111Z,19.50
2018-03-21T11:41:49.432Z,15.63
2018-03-21T11:44:53.524Z,23.50
2018-03-21T11:47:56.828Z,19.40
2018-03-21T11:51:00.906Z,12.13
2018-03-21T11:54:04.243Z,15.63
2018-03-21T11:57:07.560Z,22.37
2018-03-21T12:00:10.904Z,17.77
2018-03-21T12:03:14.210Z,16.40
2018-03-21T12:06:17.526Z,12.67
2018-03-21T12:09:20.827Z,15.33
2018-03-21T12:12:24.908Z,16.93
2018-03-21T12:15:28.228Z,10.57
2018-03-21T12:18:32.978Z,14.80
2018-03-21T12:21:36.313Z,12.40
2018-03-21T12:24:39.607Z,17.43
2018-03-21T12:27:42.922Z,11.50
2018-03-21T12:30:46.221Z,14.00
2018-03-21T12:33:49.552Z,12.43
2018-03-21T12:36:53.622Z,14.50
2018-03-21T12:39:56.958Z,17.17
2018-03-21T12:43:01.027Z,8.53
2018-03-21T12:46:04.342Z,12.07
2018-03-21T12:49:07.663Z,13.40
2018-03-21T12:52:11.723Z,10.10
2018-03-21T12:55:15.036Z,10.70
2018-03-21T12:58:18.336Z,11.67
2018-03-21T13:01:21.650Z,12.13
2018-03-21T13:04:24.997Z,17.27
2018-03-21T13:07:28.308Z,14.83
2018-03-21T13:10:31.618Z,12.87
2018-03-21T13:13:34.985Z,17.87
2018-03-21T13:16:38.259Z,16.20
2018-03-21T13:19:42.405Z,19.17
2018-03-21T13:22:46.443Z,17.10
2018-03-21T13:25:49.758Z,14.77
2018-03-21T13:28:53.063Z,13.07
2018-03-21T13:31:56.387Z,11.80
2018-03-21T13:34:59.704Z,15.30
2018-03-21T13:38:03.032Z,16.33
2018-03-21T13:41:06.353Z,13.13
2018-03-21T13:44:09.647Z,12.03
2018-03-21T13:47:13.730Z,12.17
2018-03-21T13:50:17.038Z,14.73
2018-03-21T13:53:20.408Z,14.13
2018-03-21T13:56:23.727Z,15.73
2018-03-21T13:59:27.036Z,12.23
2018-03-21T14:02:30.343Z,18.87
2018-03-21T14:05:33.663Z,17.17
2018-03-21T14:08:36.964Z,21.07
2018-03-21T14:11:40.347Z,16.60
2018-03-21T14:14:43.604Z,20.37
2018-03-21T14:17:46.926Z,17.17
2018-03-21T14:20:50.244Z,21.63
2018-03-21T14:23:54.327Z,15.93
2018-03-21T14:26:57.648Z,15.27
2018-03-21T14:30:01.789Z,18.73
2018-03-21T14:33:06.680Z,19.27
2018-03-21T14:36:10.283Z,19.03
2018-03-21T14:39:13.631Z,22.60
2018-03-21T14:42:16.931Z,20.27
2018-03-21T14:45:20.263Z,16.93
2018-03-21T14:48:23.576Z,24.13
2018-03-21T14:51:26.898Z,24.60
2018-03-21T14:54:30.218Z,19.10
2018-03-21T14:57:33.548Z,22.87
2018-03-21T15:00:36.880Z,26.40
2018-03-21T15:03:40.223Z,22.73
2018-03-21T15:06:43.535Z,20.60
2018-03-21T15:09:46.863Z,20.70
2018-03-21T15:12:50.960Z,15.47
2018-03-21T15:15:54.291Z,18.30
2018-03-21T15:18:57.608Z,20.93
2018-03-21T15:22:00.981Z,17.93
2018-03-21T15:25:04.312Z,24.70
2018-03-21T15:28:07.628Z,17.13
2018-03-21T15:31:10.958Z,23.63
2018-03-21T15:34:15.916Z,23.00
2018-03-21T15:37:19.222Z,14.93
2018-03-21T15:40:22.559Z,22.60
2018-03-21T15:43:25.870Z,18.70
2018-03-21T15:46:29.194Z,19.90
2018-03-21T15:49:32.504Z,24.33
2018-03-21T15:52:35.819Z,20.80
2018-03-21T15:55:39.128Z,16.70
2018-03-21T15:58:42.453Z,19.77
2018-03-21T16:01:45.781Z,18.23
2018-03-21T16:04:49.092Z,23.63
2018-03-21T16:07:52.412Z,18.47
2018-03-21T16:10:55.734Z,18.57
2018-03-21T16:13:59.060Z,20.67
2018-03-21T16:17:02.360Z,19.63
2018-03-21T16:20:05.687Z,21.13
2018-03-21T16:23:09.289Z,17.47
2018-03-21T16:26:12.640Z,21.40
2018-03-21T16:29:16.716Z,17.10
2018-03-21T16:32:20.051Z,19.33
2018-03-21T16:35:24.149Z,18.67
2018-03-21T16:38:27.452Z,19.60
2018-03-21T16:41:30.795Z,17.73
2018-03-21T16:44:34.138Z,18.13
2018-03-21T16:47:37.468Z,19.53
2018-03-21T16:50:40.779Z,21.37
2018-03-21T16:53:44.130Z,46.27
2018-03-21T16:56:47.440Z,28.33
2018-03-21T16:59:51.535Z,50.33
2018-03-21T17:02:54.838Z,26.10
2018-03-21T17:05:58.159Z,57.57
2018-03-21T17:09:01.481Z,28.90
2018-03-21T17:12:04.807Z,46.23
2018-03-21T17:15:08.107Z,47.47
2018-03-21T17:18:11.435Z,17.73
2018-03-21T17:21:15.494Z,23.13
2018-03-21T17:24:18.818Z,21.53
2018-03-21T17:27:22.120Z,19.27
2018-03-21T17:30:25.455Z,24.93
2018-03-21T17:33:28.754Z,42.17
2018-03-21T17:36:32.078Z,30.03
2018-03-21T17:39:35.379Z,24.60
2018-03-21T17:42:38.708Z,57.17
2018-03-21T17:45:42.017Z,46.97
2018-03-21T17:48:46.119Z,36.93
2018-03-21T17:51:49.429Z,65.63
2018-03-21T17:54:53.512Z,36.73
2018-03-21T17:57:58.448Z,63.07
2018-03-21T18:14:08.890Z,157.03
2018-03-21T18:18:02.400Z,84.00
2018-03-21T18:24:58.688Z,94.43
2018-03-21T18:28:02.128Z,36.47
2018-03-21T18:31:06.164Z,32.33
2018-03-21T18:34:09.503Z,121.77
2018-03-21T18:37:13.736Z,30.17
2018-03-21T18:40:18.243Z,36.17
2018-03-21T18:43:21.644Z,14.00
2018-03-21T18:46:24.973Z,16.83
2018-03-21T18:49:36.591Z,61.10
2018-03-21T18:52:40.756Z,20.97
2018-03-21T18:55:47.115Z,34.30
2018-03-21T18:58:51.663Z,16.93
2018-03-21T19:01:55.031Z,14.83
2018-03-21T19:04:58.358Z,29.17
2018-03-21T19:08:01.757Z,13.80
2018-03-21T19:11:06.075Z,17.33
2018-03-21T19:14:09.528Z,16.27
2018-03-21T19:17:12.900Z,47.07
2018-03-21T19:20:16.252Z,19.03
2018-03-21T19:23:19.675Z,35.23
2018-03-21T19:26:23.208Z,16.20
2018-03-21T19:29:26.592Z,13.47
2018-03-21T19:32:30.061Z,25.23
2018-03-21T19:35:33.435Z,18.23
2018-03-21T19:38:36.857Z,24.50
2018-03-21T19:41:40.291Z,38.93
2018-03-21T19:44:43.717Z,25.50
2018-03-21T19:47:47.162Z,22.90
2018-03-21T19:50:50.564Z,20.13
2018-03-21T19:57:38.571Z,16.50
